Terminal Aerodrome Forecast
Issued by NWS Mt. Holly, NJ

Home | Current Version | Previous Version | Text Only | Print | Product List | Glossary On
Versions: 1 2 3 4 5 6 7 8 9 10 11 12 13 14 15 16 17 18 19 20 21 22 23 24 25 26 27
000
FTUS41 KPHI 052055 AAB
TAFTTN
TAF AMD
KTTN 052055Z 0521/0618 36010KT 1SM -SN OVC015
      TEMPO 0521/0522 1/2SM SN BKN009
     FM052300 33010KT P6SM OVC025
     FM060100 32007KT P6SM BKN100=

USA.gov is the U.S. government's official web portal to all federal, state and local government web resources and services.